sensor_id;sensor_type;location;lat;lon;timestamp;pressure;altitude;pressure_sealevel;temperature;humidity
37860;BME280;23698;52.014;5.190;2023-04-09T00:02:22;102472.88;;;10.65;100.00
37860;BME280;23698;52.014;5.190;2023-04-09T00:05:10;102482.78;;;10.56;100.00
37860;BME280;23698;52.014;5.190;2023-04-09T00:07:56;102477.63;;;10.35;100.00
37860;BME280;23698;52.014;5.190;2023-04-09T00:10:43;102478.97;;;10.49;100.00
37860;BME280;23698;52.014;5.190;2023-04-09T00:13:30;102474.47;;;10.85;100.00
37860;BME280;23698;52.014;5.190;2023-04-09T00:16:23;102475.53;;;10.74;100.00
37860;BME280;23698;52.014;5.190;2023-04-09T00:19:10;102476.59;;;10.36;100.00
37860;BME280;23698;52.014;5.190;2023-04-09T00:21:58;102477.63;;;10.35;100.00
37860;BME280;23698;52.014;5.190;2023-04-09T00:24:44;102468.44;;;10.64;100.00
37860;BME280;23698;52.014;5.190;2023-04-09T00:27:31;102471.50;;;10.79;100.00
37860;BME280;23698;52.014;5.190;2023-04-09T00:30:17;102477.03;;;11.05;100.00
37860;BME280;23698;52.014;5.190;2023-04-09T00:33:03;102480.28;;;10.90;100.00
37860;BME280;23698;52.014;5.190;2023-04-09T00:35:53;102473.75;;;11.19;100.00
37860;BME280;23698;52.014;5.190;2023-04-09T00:38:41;102467.09;;;10.95;100.00
37860;BME280;23698;52.014;5.190;2023-04-09T00:41:27;102466.94;;;10.79;100.00
37860;BME280;23698;52.014;5.190;2023-04-09T00:44:13;102464.94;;;11.17;100.00
37860;BME280;23698;52.014;5.190;2023-04-09T00:47:00;102461.75;;;10.86;100.00
37860;BME280;23698;52.014;5.190;2023-04-09T00:49:46;102465.59;;;10.83;100.00
37860;BME280;23698;52.014;5.190;2023-04-09T00:52:32;102463.91;;;11.00;100.00
37860;BME280;23698;52.014;5.190;2023-04-09T00:55:21;102461.13;;;10.92;100.00
37860;BME280;23698;52.014;5.190;2023-04-09T00:58:07;102452.81;;;10.93;100.00
37860;BME280;23698;52.014;5.190;2023-04-09T01:00:53;102453.06;;;11.00;100.00
37860;BME280;23698;52.014;5.190;2023-04-09T01:03:40;102460.66;;;10.96;100.00
37860;BME280;23698;52.014;5.190;2023-04-09T01:06:34;102454.19;;;10.62;100.00
37860;BME280;23698;52.014;5.190;2023-04-09T01:09:27;102451.91;;;11.03;100.00
37860;BME280;23698;52.014;5.190;2023-04-09T01:12:22;102455.16;;;11.24;100.00
37860;BME280;23698;52.014;5.190;2023-04-09T01:15:14;102447.34;;;11.03;100.00
37860;BME280;23698;52.014;5.190;2023-04-09T01:18:05;102445.16;;;10.89;100.00
37860;BME280;23698;52.014;5.190;2023-04-09T01:20:57;102439.50;;;11.00;100.00
37860;BME280;23698;52.014;5.190;2023-04-09T01:23:46;102439.66;;;10.99;100.00
37860;BME280;23698;52.014;5.190;2023-04-09T01:26:47;102440.72;;;10.70;100.00
37860;BME280;23698;52.014;5.190;2023-04-09T01:29:46;102441.88;;;10.49;100.00
37860;BME280;23698;52.014;5.190;2023-04-09T01:32:36;102433.53;;;10.79;100.00
37860;BME280;23698;52.014;5.190;2023-04-09T01:35:24;102437.38;;;10.76;100.00
37860;BME280;23698;52.014;5.190;2023-04-09T01:38:14;102449.34;;;11.01;100.00
37860;BME280;23698;52.014;5.190;2023-04-09T01:41:02;102436.53;;;10.75;100.00
37860;BME280;23698;52.014;5.190;2023-04-09T01:43:50;102435.22;;;10.80;100.00
37860;BME280;23698;52.014;5.190;2023-04-09T01:46:39;102437.41;;;10.94;100.00
37860;BME280;23698;52.014;5.190;2023-04-09T01:49:26;102439.78;;;10.97;100.00
37860;BME280;23698;52.014;5.190;2023-04-09T01:52:13;102448.00;;;10.69;100.00
37860;BME280;23698;52.014;5.190;2023-04-09T01:55:00;102438.47;;;10.83;100.00
37860;BME280;23698;52.014;5.190;2023-04-09T01:57:47;102439.25;;;10.75;100.00
37860;BME280;23698;52.014;5.190;2023-04-09T02:00:38;102441.97;;;10.75;100.00
37860;BME280;23698;52.014;5.190;2023-04-09T02:03:30;102433.34;;;10.62;100.00
37860;BME280;23698;52.014;5.190;2023-04-09T02:06:24;102445.22;;;10.79;100.00
37860;BME280;23698;52.014;5.190;2023-04-09T02:09:14;102440.03;;;10.86;100.00
37860;BME280;23698;52.014;5.190;2023-04-09T02:12:05;102435.63;;;11.03;100.00
37860;BME280;23698;52.014;5.190;2023-04-09T02:14:59;102439.66;;;10.99;100.00
37860;BME280;23698;52.014;5.190;2023-04-09T02:17:47;102439.94;;;10.60;100.00
37860;BME280;23698;52.014;5.190;2023-04-09T02:20:34;102437.09;;;11.15;100.00
37860;BME280;23698;52.014;5.190;2023-04-09T02:23:21;102428.56;;;11.54;100.00
37860;BME280;23698;52.014;5.190;2023-04-09T02:26:08;102432.97;;;11.11;100.00
37860;BME280;23698;52.014;5.190;2023-04-09T02:28:54;102426.28;;;11.41;100.00
37860;BME280;23698;52.014;5.190;2023-04-09T02:31:40;102431.19;;;11.20;100.00
37860;BME280;23698;52.014;5.190;2023-04-09T02:34:27;102432.59;;;11.06;100.00
37860;BME280;23698;52.014;5.190;2023-04-09T02:37:15;102431.03;;;11.47;100.00
37860;BME280;23698;52.014;5.190;2023-04-09T02:40:02;102432.09;;;11.55;100.00
37860;BME280;23698;52.014;5.190;2023-04-09T02:42:49;102424.81;;;11.29;100.00
37860;BME280;23698;52.014;5.190;2023-04-09T02:45:35;102430.97;;;10.95;100.00
37860;BME280;23698;52.014;5.190;2023-04-09T02:48:22;102420.22;;;11.29;100.00
37860;BME280;23698;52.014;5.190;2023-04-09T02:51:08;102422.09;;;11.11;100.00
37860;BME280;23698;52.014;5.190;2023-04-09T02:53:56;102425.06;;;11.18;100.00
37860;BME280;23698;52.014;5.190;2023-04-09T02:56:43;102418.78;;;11.17;100.00
37860;BME280;23698;52.014;5.190;2023-04-09T02:59:29;102416.34;;;11.32;100.00
37860;BME280;23698;52.014;5.190;2023-04-09T03:02:16;102422.81;;;11.57;100.00
37860;BME280;23698;52.014;5.190;2023-04-09T03:05:04;102419.59;;;11.62;100.00
37860;BME280;23698;52.014;5.190;2023-04-09T03:07:50;102415.84;;;11.10;100.00
37860;BME280;23698;52.014;5.190;2023-04-09T03:10:38;102420.03;;;11.49;100.00
37860;BME280;23698;52.014;5.190;2023-04-09T03:13:26;102418.16;;;11.76;100.00
37860;BME280;23698;52.014;5.190;2023-04-09T03:16:13;102417.31;;;11.49;100.00
37860;BME280;23698;52.014;5.190;2023-04-09T03:18:59;102414.69;;;11.65;100.00
37860;BME280;23698;52.014;5.190;2023-04-09T03:21:45;102414.81;;;11.29;100.00
37860;BME280;23698;52.014;5.190;2023-04-09T03:24:34;102405.00;;;11.37;100.00
37860;BME280;23698;52.014;5.190;2023-04-09T03:27:24;102405.78;;;11.03;100.00
37860;BME280;23698;52.014;5.190;2023-04-09T03:30:13;102400.00;;;11.24;100.00
37860;BME280;23698;52.014;5.190;2023-04-09T03:33:02;102403.34;;;11.44;100.00
37860;BME280;23698;52.014;5.190;2023-04-09T03:35:52;102396.75;;;11.20;100.00
37860;BME280;23698;52.014;5.190;2023-04-09T03:38:48;102393.22;;;11.02;100.00
37860;BME280;23698;52.014;5.190;2023-04-09T03:41:46;102398.09;;;11.42;100.00
37860;BME280;23698;52.014;5.190;2023-04-09T03:44:36;102394.16;;;10.92;100.00
37860;BME280;23698;52.014;5.190;2023-04-09T03:47:26;102390.75;;;10.90;100.00
37860;BME280;23698;52.014;5.190;2023-04-09T03:50:14;102387.09;;;10.64;100.00
37860;BME280;23698;52.014;5.190;2023-04-09T03:53:07;102376.63;;;10.87;100.00
37860;BME280;23698;52.014;5.190;2023-04-09T03:55:55;102384.22;;;10.47;100.00
37860;BME280;23698;52.014;5.190;2023-04-09T03:58:43;102382.22;;;10.49;100.00
37860;BME280;23698;52.014;5.190;2023-04-09T04:01:33;102381.13;;;10.60;100.00
37860;BME280;23698;52.014;5.190;2023-04-09T04:04:20;102383.78;;;10.52;100.00
37860;BME280;23698;52.014;5.190;2023-04-09T04:07:14;102382.66;;;11.17;100.00
37860;BME280;23698;52.014;5.190;2023-04-09T04:10:06;102385.06;;;11.02;100.00
37860;BME280;23698;52.014;5.190;2023-04-09T04:12:53;102383.88;;;11.48;100.00
37860;BME280;23698;52.014;5.190;2023-04-09T04:15:45;102376.94;;;11.02;100.00
37860;BME280;23698;52.014;5.190;2023-04-09T04:18:35;102384.44;;;10.90;100.00
37860;BME280;23698;52.014;5.190;2023-04-09T04:21:21;102371.13;;;10.96;100.00
37860;BME280;23698;52.014;5.190;2023-04-09T04:24:15;102376.88;;;11.20;100.00
37860;BME280;23698;52.014;5.190;2023-04-09T04:27:02;102375.16;;;11.37;100.00
37860;BME280;23698;52.014;5.190;2023-04-09T04:29:56;102373.63;;;11.34;100.00
37860;BME280;23698;52.014;5.190;2023-04-09T04:33:02;102377.22;;;11.17;100.00
37860;BME280;23698;52.014;5.190;2023-04-09T04:36:05;102378.81;;;11.27;100.00
37860;BME280;23698;52.014;5.190;2023-04-09T04:38:58;102379.03;;;11.08;100.00
37860;BME280;23698;52.014;5.190;2023-04-09T04:41:53;102371.28;;;10.95;100.00
37860;BME280;23698;52.014;5.190;2023-04-09T04:44:43;102368.66;;;10.85;100.00
37860;BME280;23698;52.014;5.190;2023-04-09T04:47:42;102365.63;;;10.88;100.00
37860;BME280;23698;52.014;5.190;2023-04-09T04:50:28;102369.56;;;10.76;100.00
37860;BME280;23698;52.014;5.190;2023-04-09T04:53:23;102361.06;;;10.71;100.00
37860;BME280;23698;52.014;5.190;2023-04-09T04:56:12;102367.94;;;10.83;100.00
37860;BME280;23698;52.014;5.190;2023-04-09T04:59:05;102367.41;;;10.98;100.00
37860;BME280;23698;52.014;5.190;2023-04-09T05:02:04;102376.53;;;10.96;100.00
37860;BME280;23698;52.014;5.190;2023-04-09T05:05:00;102371.03;;;11.06;100.00
37860;BME280;23698;52.014;5.190;2023-04-09T05:07:53;102377.81;;;10.66;100.00
37860;BME280;23698;52.014;5.190;2023-04-09T05:10:42;102369.09;;;10.99;100.00
37860;BME280;23698;52.014;5.190;2023-04-09T05:13:30;102367.28;;;11.07;100.00
37860;BME280;23698;52.014;5.190;2023-04-09T05:16:19;102374.78;;;10.87;100.00
37860;BME280;23698;52.014;5.190;2023-04-09T05:19:12;102372.81;;;11.42;100.00
37860;BME280;23698;52.014;5.190;2023-04-09T05:22:00;102375.19;;;11.19;100.00
37860;BME280;23698;52.014;5.190;2023-04-09T05:24:47;102383.38;;;11.27;100.00
37860;BME280;23698;52.014;5.190;2023-04-09T05:27:35;102386.59;;;11.04;100.00
37860;BME280;23698;52.014;5.190;2023-04-09T05:30:21;102378.72;;;10.93;100.00
37860;BME280;23698;52.014;5.190;2023-04-09T05:33:08;102376.47;;;11.06;100.00
37860;BME280;23698;52.014;5.190;2023-04-09T05:35:55;102385.69;;;10.95;100.00
37860;BME280;23698;52.014;5.190;2023-04-09T05:38:42;102389.31;;;11.04;100.00
37860;BME280;23698;52.014;5.190;2023-04-09T05:41:28;102383.28;;;11.10;100.00
37860;BME280;23698;52.014;5.190;2023-04-09T05:44:39;102392.09;;;11.12;100.00
37860;BME280;23698;52.014;5.190;2023-04-09T05:47:30;102393.25;;;11.28;100.00
37860;BME280;23698;52.014;5.190;2023-04-09T05:50:26;102392.56;;;11.26;100.00
37860;BME280;23698;52.014;5.190;2023-04-09T05:53:12;102390.41;;;11.11;100.00
37860;BME280;23698;52.014;5.190;2023-04-09T05:55:59;102401.28;;;11.38;100.00
37860;BME280;23698;52.014;5.190;2023-04-09T05:58:58;102390.38;;;10.85;100.00
37860;BME280;23698;52.014;5.190;2023-04-09T06:01:46;102396.16;;;11.08;100.00
37860;BME280;23698;52.014;5.190;2023-04-09T06:04:32;102394.91;;;10.85;100.00
37860;BME280;23698;52.014;5.190;2023-04-09T06:07:19;102410.34;;;10.84;100.00
37860;BME280;23698;52.014;5.190;2023-04-09T06:10:07;102397.78;;;10.83;100.00
37860;BME280;23698;52.014;5.190;2023-04-09T06:12:53;102400.34;;;10.67;100.00
37860;BME280;23698;52.014;5.190;2023-04-09T06:15:39;102403.53;;;10.80;100.00
37860;BME280;23698;52.014;5.190;2023-04-09T06:18:27;102399.66;;;10.65;100.00
37860;BME280;23698;52.014;5.190;2023-04-09T06:21:14;102408.34;;;10.68;100.00
37860;BME280;23698;52.014;5.190;2023-04-09T06:24:00;102411.13;;;10.94;100.00
37860;BME280;23698;52.014;5.190;2023-04-09T06:26:47;102416.31;;;11.06;100.00
37860;BME280;23698;52.014;5.190;2023-04-09T06:29:33;102421.22;;;11.28;100.00
37860;BME280;23698;52.014;5.190;2023-04-09T06:32:19;102421.63;;;11.33;100.00
37860;BME280;23698;52.014;5.190;2023-04-09T06:35:07;102425.47;;;11.49;100.00
37860;BME280;23698;52.014;5.190;2023-04-09T06:37:54;102427.84;;;11.26;100.00
37860;BME280;23698;52.014;5.190;2023-04-09T06:40:41;102423.38;;;10.99;100.00
37860;BME280;23698;52.014;5.190;2023-04-09T06:43:27;102426.38;;;11.58;100.00
37860;BME280;23698;52.014;5.190;2023-04-09T06:46:14;102434.56;;;11.22;100.00
37860;BME280;23698;52.014;5.190;2023-04-09T06:49:02;102433.06;;;11.45;100.00
37860;BME280;23698;52.014;5.190;2023-04-09T06:51:49;102438.56;;;11.27;100.00
37860;BME280;23698;52.014;5.190;2023-04-09T06:54:37;102430.59;;;11.08;100.00
37860;BME280;23698;52.014;5.190;2023-04-09T06:57:24;102435.31;;;11.24;100.00
37860;BME280;23698;52.014;5.190;2023-04-09T07:00:12;102436.59;;;10.66;100.00
37860;BME280;23698;52.014;5.190;2023-04-09T07:02:58;102432.75;;;10.86;100.00
37860;BME280;23698;52.014;5.190;2023-04-09T07:05:45;102436.53;;;10.93;100.00
37860;BME280;23698;52.014;5.190;2023-04-09T07:08:34;102437.38;;;11.30;100.00
37860;BME280;23698;52.014;5.190;2023-04-09T07:11:20;102440.34;;;10.83;100.00
37860;BME280;23698;52.014;5.190;2023-04-09T07:14:06;102437.25;;;10.77;100.00
37860;BME280;23698;52.014;5.190;2023-04-09T07:16:52;102437.63;;;10.65;100.00
37860;BME280;23698;52.014;5.190;2023-04-09T07:19:39;102430.72;;;10.52;100.00
37860;BME280;23698;52.014;5.190;2023-04-09T07:22:27;102435.00;;;10.73;100.00
37860;BME280;23698;52.014;5.190;2023-04-09T07:25:15;102436.75;;;11.18;100.00
37860;BME280;23698;52.014;5.190;2023-04-09T07:28:02;102442.91;;;10.66;100.00
37860;BME280;23698;52.014;5.190;2023-04-09T07:30:48;102443.16;;;10.73;100.00
37860;BME280;23698;52.014;5.190;2023-04-09T07:33:35;102438.09;;;10.32;100.00
37860;BME280;23698;52.014;5.190;2023-04-09T07:36:21;102445.75;;;10.47;100.00
37860;BME280;23698;52.014;5.190;2023-04-09T07:39:08;102444.28;;;10.52;100.00
37860;BME280;23698;52.014;5.190;2023-04-09T07:41:56;102437.69;;;10.55;100.00
37860;BME280;23698;52.014;5.190;2023-04-09T07:44:42;102433.00;;;10.75;100.00
37860;BME280;23698;52.014;5.190;2023-04-09T07:47:28;102441.28;;;10.55;100.00
37860;BME280;23698;52.014;5.190;2023-04-09T07:50:15;102441.81;;;10.59;100.00
37860;BME280;23698;52.014;5.190;2023-04-09T07:53:02;102436.28;;;11.23;100.00
37860;BME280;23698;52.014;5.190;2023-04-09T07:55:52;102436.38;;;11.13;100.00
37860;BME280;23698;52.014;5.190;2023-04-09T07:58:39;102443.28;;;11.07;100.00
37860;BME280;23698;52.014;5.190;2023-04-09T08:01:25;102451.66;;;11.14;100.00
37860;BME280;23698;52.014;5.190;2023-04-09T08:04:12;102457.91;;;11.50;100.00
37860;BME280;23698;52.014;5.190;2023-04-09T08:07:02;102450.97;;;11.56;100.00
37860;BME280;23698;52.014;5.190;2023-04-09T08:09:48;102462.41;;;11.42;100.00
37860;BME280;23698;52.014;5.190;2023-04-09T08:12:35;102464.34;;;12.02;100.00
37860;BME280;23698;52.014;5.190;2023-04-09T08:15:23;102469.00;;;12.52;100.00
37860;BME280;23698;52.014;5.190;2023-04-09T08:18:09;102469.66;;;12.54;100.00
37860;BME280;23698;52.014;5.190;2023-04-09T08:21:03;102478.66;;;12.04;100.00
37860;BME280;23698;52.014;5.190;2023-04-09T08:23:50;102465.34;;;12.27;100.00
37860;BME280;23698;52.014;5.190;2023-04-09T08:26:36;102476.44;;;12.42;100.00
37860;BME280;23698;52.014;5.190;2023-04-09T08:29:23;102477.09;;;12.44;100.00
37860;BME280;23698;52.014;5.190;2023-04-09T08:32:11;102473.06;;;12.56;100.00
37860;BME280;23698;52.014;5.190;2023-04-09T08:34:58;102472.56;;;12.53;100.00
37860;BME280;23698;52.014;5.190;2023-04-09T08:37:47;102474.03;;;12.90;100.00
37860;BME280;23698;52.014;5.190;2023-04-09T08:40:34;102467.88;;;12.88;100.00
37860;BME280;23698;52.014;5.190;2023-04-09T08:43:21;102461.13;;;13.74;100.00
37860;BME280;23698;52.014;5.190;2023-04-09T08:46:29;102468.94;;;13.28;100.00
37860;BME280;23698;52.014;5.190;2023-04-09T08:49:18;102465.09;;;13.38;100.00
37860;BME280;23698;52.014;5.190;2023-04-09T08:52:04;102474.41;;;13.52;100.00
37860;BME280;23698;52.014;5.190;2023-04-09T08:54:50;102468.03;;;14.41;100.00
37860;BME280;23698;52.014;5.190;2023-04-09T08:57:37;102475.97;;;14.19;100.00
37860;BME280;23698;52.014;5.190;2023-04-09T09:00:23;102474.06;;;13.72;100.00
37860;BME280;23698;52.014;5.190;2023-04-09T09:03:11;102475.41;;;13.84;100.00
37860;BME280;23698;52.014;5.190;2023-04-09T09:05:59;102471.31;;;13.22;100.00
37860;BME280;23698;52.014;5.190;2023-04-09T09:08:58;102460.34;;;14.05;100.00
37860;BME280;23698;52.014;5.190;2023-04-09T09:11:46;102458.75;;;13.30;100.00
37860;BME280;23698;52.014;5.190;2023-04-09T09:14:34;102457.41;;;13.34;100.00
37860;BME280;23698;52.014;5.190;2023-04-09T09:17:21;102465.06;;;14.19;100.00
37860;BME280;23698;52.014;5.190;2023-04-09T09:20:18;102454.44;;;13.76;100.00
37860;BME280;23698;52.014;5.190;2023-04-09T09:23:07;102466.59;;;13.49;100.00
37860;BME280;23698;52.014;5.190;2023-04-09T09:25:53;102458.56;;;13.81;100.00
37860;BME280;23698;52.014;5.190;2023-04-09T09:28:40;102458.00;;;13.93;100.00
37860;BME280;23698;52.014;5.190;2023-04-09T09:31:26;102452.66;;;14.08;100.00
37860;BME280;23698;52.014;5.190;2023-04-09T09:34:13;102446.53;;;14.46;100.00
37860;BME280;23698;52.014;5.190;2023-04-09T09:37:00;102448.81;;;14.26;100.00
37860;BME280;23698;52.014;5.190;2023-04-09T09:39:47;102444.22;;;14.66;100.00
37860;BME280;23698;52.014;5.190;2023-04-09T09:42:34;102451.19;;;14.77;100.00
37860;BME280;23698;52.014;5.190;2023-04-09T09:45:20;102447.00;;;13.62;100.00
37860;BME280;23698;52.014;5.190;2023-04-09T09:48:09;102439.84;;;14.17;100.00
37860;BME280;23698;52.014;5.190;2023-04-09T09:50:56;102446.72;;;14.44;100.00
37860;BME280;23698;52.014;5.190;2023-04-09T09:53:44;102446.31;;;15.10;100.00
37860;BME280;23698;52.014;5.190;2023-04-09T09:56:37;102439.56;;;14.75;100.00
37860;BME280;23698;52.014;5.190;2023-04-09T09:59:31;102440.16;;;14.53;100.00
37860;BME280;23698;52.014;5.190;2023-04-09T10:02:22;102441.25;;;15.22;100.00
37860;BME280;23698;52.014;5.190;2023-04-09T10:05:11;102437.88;;;14.97;100.00
37860;BME280;23698;52.014;5.190;2023-04-09T10:07:59;102431.66;;;15.64;100.00
37860;BME280;23698;52.014;5.190;2023-04-09T10:10:47;102426.19;;;15.64;100.00
37860;BME280;23698;52.014;5.190;2023-04-09T10:13:38;102413.47;;;14.95;100.00
37860;BME280;23698;52.014;5.190;2023-04-09T10:16:26;102410.53;;;15.05;100.00
37860;BME280;23698;52.014;5.190;2023-04-09T10:19:13;102413.75;;;14.54;100.00
37860;BME280;23698;52.014;5.190;2023-04-09T10:22:04;102408.28;;;15.23;100.00
37860;BME280;23698;52.014;5.190;2023-04-09T10:24:57;102408.06;;;15.48;100.00
37860;BME280;23698;52.014;5.190;2023-04-09T10:27:44;102400.13;;;15.00;100.00
37860;BME280;23698;52.014;5.190;2023-04-09T10:30:35;102400.50;;;15.20;100.00
37860;BME280;23698;52.014;5.190;2023-04-09T10:33:22;102397.44;;;15.83;100.00
37860;BME280;23698;52.014;5.190;2023-04-09T10:36:11;102397.22;;;15.55;100.00
37860;BME280;23698;52.014;5.190;2023-04-09T10:38:58;102385.34;;;15.47;100.00
37860;BME280;23698;52.014;5.190;2023-04-09T10:41:57;102384.41;;;15.70;100.00
37860;BME280;23698;52.014;5.190;2023-04-09T10:44:44;102393.09;;;15.59;100.00
37860;BME280;23698;52.014;5.190;2023-04-09T10:47:33;102379.91;;;16.07;100.00
37860;BME280;23698;52.014;5.190;2023-04-09T10:50:24;102379.06;;;16.43;100.00
37860;BME280;23698;52.014;5.190;2023-04-09T10:53:20;102378.00;;;16.22;100.00
37860;BME280;23698;52.014;5.190;2023-04-09T10:56:13;102376.41;;;16.13;100.00
37860;BME280;23698;52.014;5.190;2023-04-09T10:59:00;102376.81;;;16.68;100.00
37860;BME280;23698;52.014;5.190;2023-04-09T11:01:51;102390.31;;;15.82;100.00
37860;BME280;23698;52.014;5.190;2023-04-09T11:04:45;102379.75;;;15.94;100.00
37860;BME280;23698;52.014;5.190;2023-04-09T11:07:39;102380.50;;;15.88;100.00
37860;BME280;23698;52.014;5.190;2023-04-09T11:10:28;102381.50;;;15.86;100.00
37860;BME280;23698;52.014;5.190;2023-04-09T11:13:16;102368.28;;;16.99;100.00
37860;BME280;23698;52.014;5.190;2023-04-09T11:16:05;102370.22;;;16.41;100.00
37860;BME280;23698;52.014;5.190;2023-04-09T11:18:51;102366.09;;;16.88;100.00
37860;BME280;23698;52.014;5.190;2023-04-09T11:21:43;102358.28;;;16.70;100.00
37860;BME280;23698;52.014;5.190;2023-04-09T11:24:39;102362.31;;;17.46;100.00
37860;BME280;23698;52.014;5.190;2023-04-09T11:27:26;102360.81;;;16.29;100.00
37860;BME280;23698;52.014;5.190;2023-04-09T11:30:12;102354.88;;;16.25;100.00
37860;BME280;23698;52.014;5.190;2023-04-09T11:33:09;102347.88;;;16.59;100.00
37860;BME280;23698;52.014;5.190;2023-04-09T11:36:07;102356.38;;;16.28;100.00
37860;BME280;23698;52.014;5.190;2023-04-09T11:38:56;102357.00;;;15.93;100.00
37860;BME280;23698;52.014;5.190;2023-04-09T11:41:44;102355.88;;;15.43;100.00
37860;BME280;23698;52.014;5.190;2023-04-09T11:44:36;102348.88;;;16.00;100.00
37860;BME280;23698;52.014;5.190;2023-04-09T11:47:22;102348.25;;;16.56;100.00
37860;BME280;23698;52.014;5.190;2023-04-09T11:50:18;102346.88;;;16.45;100.00
37860;BME280;23698;52.014;5.190;2023-04-09T11:53:18;102338.03;;;15.92;100.00
37860;BME280;23698;52.014;5.190;2023-04-09T11:56:06;102337.75;;;16.01;100.00
37860;BME280;23698;52.014;5.190;2023-04-09T11:58:58;102335.88;;;16.82;100.00
37860;BME280;23698;52.014;5.190;2023-04-09T12:01:48;102341.72;;;15.99;100.00
37860;BME280;23698;52.014;5.190;2023-04-09T12:04:35;102333.03;;;16.90;100.00
37860;BME280;23698;52.014;5.190;2023-04-09T12:07:21;102333.94;;;16.97;100.00
37860;BME280;23698;52.014;5.190;2023-04-09T12:10:09;102334.66;;;16.26;100.00
37860;BME280;23698;52.014;5.190;2023-04-09T12:13:02;102330.13;;;17.26;100.00
37860;BME280;23698;52.014;5.190;2023-04-09T12:15:48;102325.63;;;17.47;100.00
37860;BME280;23698;52.014;5.190;2023-04-09T12:18:36;102335.56;;;16.48;100.00
37860;BME280;23698;52.014;5.190;2023-04-09T12:21:23;102338.31;;;16.33;100.00
37860;BME280;23698;52.014;5.190;2023-04-09T12:24:10;102334.69;;;16.69;100.00
37860;BME280;23698;52.014;5.190;2023-04-09T12:26:56;102340.06;;;16.19;100.00
37860;BME280;23698;52.014;5.190;2023-04-09T12:29:43;102344.28;;;16.80;100.00
37860;BME280;23698;52.014;5.190;2023-04-09T12:32:30;102331.78;;;15.76;100.00
37860;BME280;23698;52.014;5.190;2023-04-09T12:35:16;102340.03;;;15.98;100.00
37860;BME280;23698;52.014;5.190;2023-04-09T12:38:03;102338.50;;;16.90;100.00
37860;BME280;23698;52.014;5.190;2023-04-09T12:40:50;102334.22;;;17.37;100.00
37860;BME280;23698;52.014;5.190;2023-04-09T12:43:36;102333.69;;;17.90;100.00
37860;BME280;23698;52.014;5.190;2023-04-09T12:46:24;102326.94;;;17.51;100.00
37860;BME280;23698;52.014;5.190;2023-04-09T12:49:12;102327.34;;;17.96;100.00
37860;BME280;23698;52.014;5.190;2023-04-09T12:51:58;102332.34;;;18.34;100.00
37860;BME280;23698;52.014;5.190;2023-04-09T12:54:46;102330.66;;;18.33;100.00
37860;BME280;23698;52.014;5.190;2023-04-09T12:57:33;102329.78;;;18.19;100.00
37860;BME280;23698;52.014;5.190;2023-04-09T13:00:19;102326.03;;;18.40;100.00
37860;BME280;23698;52.014;5.190;2023-04-09T13:03:07;102326.84;;;18.21;100.00
37860;BME280;23698;52.014;5.190;2023-04-09T13:05:54;102325.50;;;18.10;100.00
37860;BME280;23698;52.014;5.190;2023-04-09T13:08:41;102326.38;;;18.17;100.00
37860;BME280;23698;52.014;5.190;2023-04-09T13:11:27;102331.38;;;16.95;100.00
37860;BME280;23698;52.014;5.190;2023-04-09T13:14:14;102336.09;;;17.36;100.00
37860;BME280;23698;52.014;5.190;2023-04-09T13:17:00;102333.84;;;16.69;100.00
37860;BME280;23698;52.014;5.190;2023-04-09T13:19:48;102339.41;;;16.97;100.00
37860;BME280;23698;52.014;5.190;2023-04-09T13:22:35;102321.19;;;17.17;100.00
37860;BME280;23698;52.014;5.190;2023-04-09T13:25:21;102321.97;;;17.74;100.00
37860;BME280;23698;52.014;5.190;2023-04-09T13:28:08;102325.63;;;18.50;100.00
37860;BME280;23698;52.014;5.190;2023-04-09T13:30:54;102323.75;;;17.89;100.00
37860;BME280;23698;52.014;5.190;2023-04-09T13:33:41;102323.19;;;17.65;100.00
37860;BME280;23698;52.014;5.190;2023-04-09T13:36:29;102318.88;;;17.14;100.00
37860;BME280;23698;52.014;5.190;2023-04-09T13:39:15;102318.69;;;17.16;100.00
37860;BME280;23698;52.014;5.190;2023-04-09T13:42:02;102307.34;;;17.26;100.00
37860;BME280;23698;52.014;5.190;2023-04-09T13:44:58;102302.69;;;17.61;100.00
37860;BME280;23698;52.014;5.190;2023-04-09T13:47:45;102293.00;;;18.00;100.00
37860;BME280;23698;52.014;5.190;2023-04-09T13:50:32;102296.53;;;17.46;100.00
37860;BME280;23698;52.014;5.190;2023-04-09T13:53:19;102290.59;;;17.42;100.00
37860;BME280;23698;52.014;5.190;2023-04-09T13:56:08;102289.03;;;18.16;100.00
37860;BME280;23698;52.014;5.190;2023-04-09T13:58:55;102297.22;;;18.03;100.00
37860;BME280;23698;52.014;5.190;2023-04-09T14:01:41;102286.78;;;18.86;100.00
37860;BME280;23698;52.014;5.190;2023-04-09T14:04:28;102286.53;;;19.15;100.00
37860;BME280;23698;52.014;5.190;2023-04-09T14:07:14;102280.59;;;18.31;100.00
37860;BME280;23698;52.014;5.190;2023-04-09T14:10:02;102274.50;;;19.16;100.00
37860;BME280;23698;52.014;5.190;2023-04-09T14:12:49;102263.66;;;18.07;100.00
37860;BME280;23698;52.014;5.190;2023-04-09T14:15:35;102263.22;;;17.14;100.00
37860;BME280;23698;52.014;5.190;2023-04-09T14:18:22;102263.06;;;18.12;100.00
37860;BME280;23698;52.014;5.190;2023-04-09T14:21:08;102266.72;;;18.86;100.00
37860;BME280;23698;52.014;5.190;2023-04-09T14:23:55;102266.41;;;18.07;100.00
37860;BME280;23698;52.014;5.190;2023-04-09T14:26:43;102271.91;;;18.07;100.00
37860;BME280;23698;52.014;5.190;2023-04-09T14:29:29;102266.69;;;18.39;100.00
37860;BME280;23698;52.014;5.190;2023-04-09T14:32:16;102261.84;;;17.73;100.00